createdAt,value
2018-12-23T00:00:17.268Z,6.30
2018-12-23T00:02:44.774Z,6.30
2018-12-23T00:05:12.284Z,6.30
2018-12-23T00:07:39.799Z,6.40
2018-12-23T00:10:07.851Z,6.40
2018-12-23T00:12:35.367Z,6.40
2018-12-23T00:15:03.173Z,6.40
2018-12-23T00:17:30.774Z,6.50
2018-12-23T00:19:58.297Z,6.40
2018-12-23T00:22:25.806Z,6.40
2018-12-23T00:24:53.319Z,6.40
2018-12-23T00:27:20.859Z,6.40
2018-12-23T00:29:48.378Z,6.50
2018-12-23T00:32:15.889Z,6.50
2018-12-23T00:34:43.409Z,6.50
2018-12-23T00:37:10.915Z,6.40
2018-12-23T00:39:38.433Z,6.40
2018-12-23T00:42:05.929Z,6.40
2018-12-23T00:44:33.459Z,6.40
2018-12-23T00:47:00.961Z,6.40
2018-12-23T00:49:28.469Z,6.50
2018-12-23T00:51:55.968Z,6.60
2018-12-23T00:54:23.486Z,6.70
2018-12-23T00:56:50.995Z,6.70
2018-12-23T00:59:18.500Z,6.70
2018-12-23T01:01:46.015Z,6.60
2018-12-23T01:04:13.621Z,6.60
2018-12-23T01:06:41.129Z,6.60
2018-12-23T01:09:08.626Z,6.60
2018-12-23T01:11:36.148Z,6.50
2018-12-23T01:14:03.768Z,6.50
2018-12-23T01:16:31.283Z,6.40
2018-12-23T01:18:58.787Z,6.30
2018-12-23T01:21:26.298Z,6.30
2018-12-23T01:23:53.808Z,6.30
2018-12-23T01:26:21.320Z,6.30
2018-12-23T01:28:48.833Z,6.20
2018-12-23T01:31:16.354Z,6.30
2018-12-23T01:33:43.862Z,6.30
2018-12-23T01:36:11.366Z,6.20
2018-12-23T01:38:38.878Z,6.10
2018-12-23T01:41:06.425Z,6.10
2018-12-23T01:43:33.933Z,5.90
2018-12-23T01:46:01.441Z,5.90
2018-12-23T01:48:28.951Z,5.80
2018-12-23T01:50:56.456Z,5.70
2018-12-23T01:53:23.959Z,5.60
2018-12-23T01:55:51.475Z,5.50
2018-12-23T01:58:19.002Z,5.40
2018-12-23T02:00:46.504Z,5.30
2018-12-23T02:03:14.010Z,5.20
2018-12-23T02:05:46.038Z,5.10
2018-12-23T02:08:11.063Z,5.00
2018-12-23T02:10:38.574Z,4.90
2018-12-23T02:13:06.085Z,4.80
2018-12-23T02:15:33.588Z,4.80
2018-12-23T02:18:01.103Z,4.80
2018-12-23T02:20:28.610Z,4.80
2018-12-23T02:22:56.131Z,4.80
2018-12-23T02:25:23.649Z,4.80
2018-12-23T02:27:51.159Z,4.80
2018-12-23T02:30:18.721Z,4.90
2018-12-23T02:32:46.231Z,4.90
2018-12-23T02:35:13.745Z,5.00
2018-12-23T02:37:41.248Z,5.00
2018-12-23T02:40:08.759Z,5.00
2018-12-23T02:42:36.267Z,5.10
2018-12-23T02:45:03.935Z,5.20
2018-12-23T02:47:31.447Z,5.10
2018-12-23T02:49:58.953Z,5.30
2018-12-23T02:52:26.459Z,5.50
2018-12-23T02:54:53.962Z,5.60
2018-12-23T02:57:21.475Z,5.70
2018-12-23T02:59:48.983Z,5.80
2018-12-23T03:02:16.515Z,5.80
2018-12-23T03:04:44.039Z,5.90
2018-12-23T03:07:11.550Z,6.00
2018-12-23T03:09:39.059Z,6.00
2018-12-23T03:12:06.560Z,6.20
2018-12-23T03:14:34.063Z,6.30
2018-12-23T03:17:01.577Z,6.40
2018-12-23T03:19:29.054Z,6.40
2018-12-23T03:21:56.530Z,6.50
2018-12-23T03:24:24.053Z,6.60
2018-12-23T03:26:51.578Z,6.60
2018-12-23T03:29:19.068Z,6.50
2018-12-23T03:31:46.616Z,6.60
2018-12-23T03:34:14.111Z,6.60
2018-12-23T03:36:41.627Z,6.70
2018-12-23T03:39:09.173Z,6.60
2018-12-23T03:41:36.722Z,6.50
2018-12-23T03:44:04.223Z,6.40
2018-12-23T03:46:31.738Z,6.30
2018-12-23T03:48:59.242Z,6.20
2018-12-23T03:51:26.718Z,6.10
2018-12-23T03:53:54.299Z,6.00
2018-12-23T03:56:21.821Z,5.90
2018-12-23T03:58:49.320Z,5.80
2018-12-23T04:01:16.796Z,5.70
2018-12-23T04:03:44.301Z,5.60
2018-12-23T04:06:11.821Z,5.40
2018-12-23T04:08:39.336Z,5.20
2018-12-23T04:11:06.922Z,5.10
2018-12-23T04:13:34.432Z,4.90
2018-12-23T04:16:02.042Z,4.80
2018-12-23T04:18:29.561Z,4.60
2018-12-23T04:20:57.070Z,4.60
2018-12-23T04:23:24.576Z,4.50
2018-12-23T04:25:52.086Z,4.40
2018-12-23T04:28:19.591Z,4.40
2018-12-23T04:33:14.634Z,4.40
2018-12-23T04:35:42.149Z,4.40
2018-12-23T04:38:09.681Z,4.30
2018-12-23T04:40:37.198Z,4.30
2018-12-23T04:43:04.758Z,4.30
2018-12-23T04:45:32.278Z,4.20
2018-12-23T04:47:59.784Z,4.20
2018-12-23T04:50:27.293Z,4.20
2018-12-23T04:52:54.795Z,4.20
2018-12-23T04:55:22.325Z,4.10
2018-12-23T04:57:49.843Z,4.20
2018-12-23T05:00:17.350Z,4.20
2018-12-23T05:02:44.898Z,4.20
2018-12-23T05:05:12.409Z,4.20
2018-12-23T05:07:39.917Z,4.10
2018-12-23T05:10:07.444Z,4.00
2018-12-23T05:12:34.961Z,3.90
2018-12-23T05:15:02.480Z,3.90
2018-12-23T05:17:30.004Z,3.80
2018-12-23T05:19:57.512Z,3.90
2018-12-23T05:22:25.025Z,3.80
2018-12-23T05:24:52.542Z,3.80
2018-12-23T05:27:20.059Z,3.80
2018-12-23T05:29:47.576Z,3.80
2018-12-23T05:32:15.086Z,3.80
2018-12-23T05:34:42.593Z,3.80
2018-12-23T05:37:10.104Z,3.80
2018-12-23T05:39:37.603Z,3.80
2018-12-23T05:42:05.256Z,3.80
2018-12-23T05:44:32.756Z,3.80
2018-12-23T05:47:00.279Z,3.70
2018-12-23T05:49:27.795Z,3.70
2018-12-23T05:51:55.301Z,3.60
2018-12-23T05:54:22.796Z,3.60
2018-12-23T05:56:50.299Z,3.50
2018-12-23T05:59:17.814Z,3.50
2018-12-23T06:01:45.316Z,3.40
2018-12-23T06:04:12.842Z,3.40
2018-12-23T06:06:40.335Z,3.40
2018-12-23T06:09:07.852Z,3.30
2018-12-23T06:11:35.372Z,3.30
2018-12-23T06:14:02.880Z,3.20
2018-12-23T06:16:30.397Z,3.20
2018-12-23T06:18:57.924Z,3.20
2018-12-23T06:21:25.423Z,3.10
2018-12-23T06:23:52.933Z,3.10
2018-12-23T06:26:20.425Z,3.20
2018-12-23T06:28:47.929Z,3.20
2018-12-23T06:31:15.449Z,3.20
2018-12-23T06:33:42.946Z,3.20
2018-12-23T06:36:10.462Z,3.20
2018-12-23T06:38:37.985Z,3.20
2018-12-23T06:41:05.491Z,3.20
2018-12-23T06:43:33.004Z,3.20
2018-12-23T06:46:00.493Z,3.20
2018-12-23T06:48:28.090Z,3.20
2018-12-23T06:50:55.607Z,3.20
2018-12-23T06:53:23.122Z,3.30
2018-12-23T06:55:50.661Z,3.40
2018-12-23T06:58:18.261Z,3.50
2018-12-23T07:00:45.780Z,3.60
2018-12-23T07:03:13.290Z,3.60
2018-12-23T07:05:40.907Z,3.50
2018-12-23T07:08:08.414Z,3.60
2018-12-23T07:10:35.953Z,3.60
2018-12-23T07:13:03.467Z,3.50
2018-12-23T07:15:30.989Z,3.60
2018-12-23T07:17:58.510Z,3.60
2018-12-23T07:20:26.055Z,3.60
2018-12-23T07:22:53.722Z,3.70
2018-12-23T07:25:21.270Z,3.70
2018-12-23T07:27:48.763Z,3.80
2018-12-23T07:30:16.294Z,3.80
2018-12-23T07:32:43.899Z,3.80
2018-12-23T07:35:11.441Z,3.90
2018-12-23T07:37:39.118Z,4.00
2018-12-23T07:40:20.752Z,4.10
2018-12-23T07:42:48.261Z,4.30
2018-12-23T07:45:15.769Z,4.40
2018-12-23T07:47:43.265Z,4.50
2018-12-23T07:50:10.785Z,4.70
2018-12-23T07:52:38.630Z,4.80
2018-12-23T07:55:06.228Z,4.90
2018-12-23T07:57:33.773Z,4.90
2018-12-23T08:00:01.489Z,5.00
2018-12-23T08:02:29.011Z,5.10
2018-12-23T08:04:57.533Z,5.20
2018-12-23T08:07:25.060Z,5.30
2018-12-23T08:09:52.568Z,5.40
2018-12-23T08:12:20.084Z,5.40
2018-12-23T08:14:47.590Z,5.50
2018-12-23T08:17:15.104Z,5.60
2018-12-23T08:19:42.737Z,5.60
2018-12-23T08:22:10.312Z,5.60
2018-12-23T08:24:37.824Z,5.70
2018-12-23T08:27:05.392Z,5.80
2018-12-23T08:29:32.907Z,5.90
2018-12-23T08:32:00.545Z,6.00
2018-12-23T08:34:28.075Z,6.10
2018-12-23T08:36:55.582Z,6.10
2018-12-23T08:39:23.077Z,6.20
2018-12-23T08:41:50.663Z,6.20
2018-12-23T08:44:18.167Z,6.20
2018-12-23T08:46:45.705Z,6.30
2018-12-23T08:49:13.235Z,6.30
2018-12-23T08:51:40.796Z,6.30
2018-12-23T08:54:08.685Z,6.40
2018-12-23T08:56:36.216Z,6.50
2018-12-23T08:59:03.819Z,6.50
2018-12-23T09:01:31.408Z,6.50
2018-12-23T09:03:58.927Z,6.60
2018-12-23T09:06:26.545Z,6.70
2018-12-23T09:08:54.076Z,6.70
2018-12-23T09:11:21.669Z,6.70
2018-12-23T09:13:49.273Z,6.70
2018-12-23T09:16:18.019Z,6.70
2018-12-23T09:18:45.751Z,6.70
2018-12-23T09:21:13.274Z,6.80
2018-12-23T09:23:40.896Z,6.90
2018-12-23T09:26:08.421Z,7.00
2018-12-23T09:28:35.932Z,7.10
2018-12-23T09:31:03.460Z,7.10
2018-12-23T09:33:31.054Z,7.20
2018-12-23T09:35:58.571Z,7.30
2018-12-23T09:38:26.076Z,7.40
2018-12-23T09:40:53.621Z,7.50
2018-12-23T09:43:21.136Z,7.60
2018-12-23T09:45:48.647Z,7.70
2018-12-23T09:48:16.187Z,7.70
2018-12-23T09:50:43.723Z,7.70
2018-12-23T09:53:11.241Z,7.80
2018-12-23T09:55:38.748Z,7.90
2018-12-23T09:58:06.269Z,7.80
2018-12-23T10:00:33.777Z,8.00
2018-12-23T10:03:01.348Z,8.00
2018-12-23T10:05:28.856Z,8.10
2018-12-23T10:07:56.401Z,8.10
2018-12-23T10:10:28.523Z,8.10
2018-12-23T10:12:54.561Z,8.20
2018-12-23T10:15:22.066Z,8.20
2018-12-23T10:17:49.592Z,8.20
2018-12-23T10:20:17.127Z,8.20
2018-12-23T10:22:44.651Z,8.20
2018-12-23T10:25:12.235Z,8.20
2018-12-23T10:27:39.740Z,8.20
2018-12-23T10:30:07.573Z,8.20
2018-12-23T10:32:35.248Z,8.30
2018-12-23T10:35:02.795Z,8.30
2018-12-23T10:37:30.375Z,8.20
2018-12-23T10:39:58.084Z,8.20
2018-12-23T10:42:25.615Z,8.10
2018-12-23T10:44:53.216Z,8.10
2018-12-23T10:47:20.732Z,8.00
2018-12-23T10:49:48.263Z,8.00
2018-12-23T10:52:15.798Z,8.00
2018-12-23T10:54:43.338Z,8.00
2018-12-23T10:57:10.839Z,8.00
2018-12-23T10:59:38.502Z,7.90
2018-12-23T11:02:13.441Z,7.90
2018-12-23T11:04:35.594Z,7.90
2018-12-23T11:08:33.530Z,7.90
2018-12-23T11:11:13.881Z,8.00
2018-12-23T11:13:55.066Z,8.10
2018-12-23T11:16:35.563Z,8.10
2018-12-23T11:19:16.734Z,8.10
2018-12-23T11:21:58.234Z,8.20
2018-12-23T11:24:38.644Z,8.20
2018-12-23T11:27:19.982Z,8.30
2018-12-23T11:30:00.596Z,8.40
2018-12-23T11:32:42.223Z,8.50
2018-12-23T11:35:22.674Z,8.50
2018-12-23T11:38:03.048Z,8.60
2018-12-23T11:40:43.906Z,8.60
2018-12-23T11:43:24.368Z,8.70
2018-12-23T11:46:05.484Z,8.80
2018-12-23T11:48:46.571Z,8.80
2018-12-23T11:51:27.354Z,8.80
2018-12-23T11:54:08.318Z,8.80
2018-12-23T11:56:49.421Z,8.80
2018-12-23T11:59:30.436Z,8.90
2018-12-23T12:02:15.284Z,8.90
2018-12-23T12:04:54.679Z,8.90
2018-12-23T12:07:35.113Z,8.80
2018-12-23T12:10:15.956Z,8.90
2018-12-23T12:12:59.579Z,8.80
2018-12-23T12:15:40.394Z,8.90
2018-12-23T12:18:21.806Z,8.90
2018-12-23T12:21:02.604Z,8.90
2018-12-23T12:23:43.863Z,8.90
2018-12-23T12:26:25.339Z,8.90
2018-12-23T12:32:26.128Z,9.00
2018-12-23T12:35:07.150Z,8.90
2018-12-23T12:37:48.099Z,8.80
2018-12-23T12:40:29.184Z,8.90
2018-12-23T12:43:09.787Z,8.80
2018-12-23T12:45:50.880Z,8.80
2018-12-23T12:48:31.766Z,8.80
2018-12-23T12:51:12.548Z,8.80
2018-12-23T12:53:53.966Z,8.70
2018-12-23T12:56:35.041Z,8.90
2018-12-23T13:02:25.238Z,8.70
2018-12-23T13:05:05.896Z,8.70
2018-12-23T13:07:47.162Z,8.60
2018-12-23T13:10:28.067Z,8.60
2018-12-23T13:13:08.867Z,8.70
2018-12-23T13:15:49.666Z,8.50
2018-12-23T13:18:30.499Z,8.60
2018-12-23T13:21:11.442Z,8.50
2018-12-23T13:23:52.443Z,8.50
2018-12-23T13:26:33.675Z,8.40
2018-12-23T13:29:14.020Z,8.40
2018-12-23T13:35:13.576Z,8.40
2018-12-23T13:37:54.476Z,8.40
2018-12-23T13:40:35.622Z,8.30
2018-12-23T13:43:16.861Z,8.30
2018-12-23T13:45:57.355Z,8.30
2018-12-23T13:48:38.281Z,8.30
2018-12-23T13:51:19.363Z,8.20
2018-12-23T13:54:00.574Z,8.20
2018-12-23T13:56:41.827Z,8.30
2018-12-23T13:59:22.948Z,8.20
2018-12-23T14:02:03.701Z,8.20
2018-12-23T14:07:49.811Z,8.20
2018-12-23T14:10:49.485Z,8.20
2018-12-23T14:13:30.348Z,8.20
2018-12-23T14:16:10.986Z,8.20
2018-12-23T14:18:52.223Z,8.20
2018-12-23T14:21:33.405Z,8.20
2018-12-23T14:24:14.117Z,8.20
2018-12-23T14:26:54.585Z,8.20
2018-12-23T14:29:35.380Z,8.10
2018-12-23T14:32:16.309Z,8.10
2018-12-23T14:34:57.501Z,8.00
2018-12-23T14:37:38.372Z,8.00
2018-12-23T14:40:19.121Z,8.00
2018-12-23T14:43:00.343Z,7.90
2018-12-23T14:45:41.604Z,7.80
2018-12-23T14:51:27.309Z,7.80
2018-12-23T15:00:18.057Z,7.70
2018-12-23T15:03:18.302Z,7.70
2018-12-23T15:05:59.153Z,7.70
2018-12-23T15:11:45.001Z,7.70
2018-12-23T15:14:26.293Z,7.60
2018-12-23T15:17:07.300Z,7.60
2018-12-23T15:19:47.838Z,7.60
2018-12-23T15:22:29.131Z,7.50
2018-12-23T15:25:10.428Z,7.50
2018-12-23T15:27:51.494Z,7.50
2018-12-23T15:30:32.347Z,7.40
2018-12-23T15:33:13.425Z,7.40
2018-12-23T15:35:54.406Z,7.40
2018-12-23T15:38:35.578Z,7.30
2018-12-23T15:44:35.136Z,7.30
2018-12-23T15:47:16.283Z,7.30
2018-12-23T15:53:06.029Z,7.30
2018-12-23T15:55:53.056Z,7.20
2018-12-23T15:58:33.476Z,7.20
2018-12-23T16:01:14.733Z,7.20
2018-12-23T16:03:55.810Z,7.20
2018-12-23T16:06:55.971Z,7.20
2018-12-23T16:09:36.690Z,7.20
2018-12-23T16:12:18.080Z,7.20
2018-12-23T16:14:58.603Z,7.10
2018-12-23T16:17:39.994Z,7.10
2018-12-23T16:20:20.435Z,7.00
2018-12-23T16:23:01.136Z,7.00
2018-12-23T16:25:42.406Z,7.00
2018-12-23T16:28:42.773Z,6.90
2018-12-23T16:31:24.171Z,6.90
2018-12-23T16:34:04.701Z,6.80
2018-12-23T16:36:45.854Z,7.00
2018-12-23T16:39:26.874Z,6.80
2018-12-23T16:42:07.524Z,6.80
2018-12-23T16:44:48.687Z,6.80
2018-12-23T16:47:29.109Z,6.80
2018-12-23T16:50:09.455Z,6.80
2018-12-23T16:52:49.841Z,6.80
2018-12-23T16:58:49.853Z,6.70
2018-12-23T17:04:38.909Z,6.70
2018-12-23T17:07:19.359Z,6.70
2018-12-23T17:10:07.933Z,6.70
2018-12-23T17:12:43.181Z,6.70
2018-12-23T17:18:43.278Z,6.70
2018-12-23T17:21:24.299Z,6.70
2018-12-23T17:24:05.518Z,6.70
2018-12-23T17:26:46.780Z,6.70
2018-12-23T17:29:28.017Z,6.70
2018-12-23T17:35:27.973Z,6.70
2018-12-23T17:38:09.104Z,6.70
2018-12-23T17:43:32.314Z,6.60
2018-12-23T17:46:00.872Z,6.60
2018-12-23T17:48:29.442Z,6.60
2018-12-23T17:50:58.015Z,6.60
2018-12-23T17:53:26.574Z,6.60
2018-12-23T17:55:55.146Z,6.60
2018-12-23T17:58:23.701Z,6.60
2018-12-23T18:00:52.333Z,6.60
2018-12-23T18:03:21.000Z,6.60
2018-12-23T18:05:49.561Z,6.60
2018-12-23T18:08:18.106Z,6.60
2018-12-23T18:10:46.935Z,6.60
2018-12-23T18:13:15.554Z,6.70
2018-12-23T18:15:44.270Z,6.60
2018-12-23T18:18:13.165Z,6.70
2018-12-23T18:20:41.740Z,6.70
2018-12-23T18:23:10.344Z,6.70
2018-12-23T18:25:38.934Z,6.60
2018-12-23T18:28:07.501Z,6.70
2018-12-23T18:30:37.644Z,6.70
2018-12-23T18:33:06.368Z,6.70
2018-12-23T18:35:34.946Z,6.70
2018-12-23T18:38:03.495Z,6.60
2018-12-23T18:40:33.366Z,6.70
2018-12-23T18:43:02.329Z,6.60
2018-12-23T18:45:30.996Z,6.60
2018-12-23T18:48:02.302Z,6.60
2018-12-23T18:50:31.036Z,6.70
2018-12-23T18:52:59.637Z,6.60
2018-12-23T18:55:29.851Z,6.60
2018-12-23T18:57:58.432Z,6.60
2018-12-23T19:00:27.045Z,6.60
2018-12-23T19:02:55.623Z,6.60
2018-12-23T19:05:24.254Z,6.60
2018-12-23T19:07:52.985Z,6.60
2018-12-23T19:10:24.621Z,6.60
2018-12-23T19:13:20.974Z,6.60
2018-12-23T19:16:06.917Z,6.60
2018-12-23T19:18:50.730Z,6.60
2018-12-23T19:21:40.381Z,6.60
2018-12-23T19:24:18.071Z,6.60
2018-12-23T19:27:04.444Z,6.60
2018-12-23T19:29:39.008Z,6.60
2018-12-23T19:32:10.691Z,6.60
2018-12-23T19:35:03.340Z,6.60
2018-12-23T19:37:43.608Z,6.60
2018-12-23T19:40:29.945Z,6.70
2018-12-23T19:43:33.143Z,6.70
2018-12-23T19:46:21.136Z,6.70
2018-12-23T19:49:18.386Z,6.70
2018-12-23T19:51:50.098Z,6.70
2018-12-23T19:54:24.378Z,6.70
2018-12-23T19:57:14.342Z,6.70
2018-12-23T20:00:03.817Z,6.80
2018-12-23T20:02:41.510Z,6.80
2018-12-23T20:05:32.168Z,6.90
2018-12-23T20:08:15.497Z,6.90
2018-12-23T20:11:06.355Z,6.90
2018-12-23T20:13:54.679Z,6.90
2018-12-23T20:16:29.102Z,7.00
2018-12-23T20:19:24.534Z,7.00
2018-12-23T20:22:12.622Z,7.00
2018-12-23T20:24:47.158Z,7.00
2018-12-23T20:27:18.810Z,7.00
2018-12-23T20:29:50.468Z,7.00
2018-12-23T20:32:24.742Z,7.10
2018-12-23T20:35:15.643Z,7.20
2018-12-23T20:38:08.126Z,7.20
2018-12-23T20:41:07.572Z,7.20
2018-12-23T20:43:42.471Z,7.30
2018-12-23T20:46:17.135Z,7.30
2018-12-23T20:49:21.779Z,7.30
2018-12-23T20:52:02.225Z,7.30
2018-12-23T20:54:45.121Z,7.50
2018-12-23T20:57:37.563Z,7.70
2018-12-23T21:00:34.489Z,7.80
2018-12-23T21:03:18.256Z,7.90
2018-12-23T21:06:12.456Z,8.10
2018-12-23T21:09:06.260Z,8.30
2018-12-23T21:12:10.659Z,8.40
2018-12-23T21:14:44.769Z,8.50
2018-12-23T21:17:19.082Z,8.60
2018-12-23T21:19:53.670Z,8.60
2018-12-23T21:22:37.232Z,8.60
2018-12-23T21:25:17.451Z,8.70
2018-12-23T21:28:16.140Z,8.70
2018-12-23T21:30:50.480Z,8.70
2018-12-23T21:33:56.782Z,8.80
2018-12-23T21:36:40.309Z,8.80
2018-12-23T21:39:21.013Z,8.90
2018-12-23T21:41:55.528Z,9.00
2018-12-23T21:44:43.433Z,9.10
2018-12-23T21:47:26.719Z,9.20
2018-12-23T21:50:13.325Z,9.30
2018-12-23T21:53:17.807Z,9.30
2018-12-23T21:56:19.538Z,9.40
2018-12-23T21:59:19.511Z,9.40
2018-12-23T22:02:02.769Z,9.60
2018-12-23T22:04:34.406Z,9.60
2018-12-23T22:07:08.749Z,9.70
2018-12-23T22:09:55.125Z,9.80
2018-12-23T22:12:56.630Z,9.80
2018-12-23T22:15:25.297Z,9.80
2018-12-23T22:17:55.784Z,9.90
2018-12-23T22:20:24.212Z,9.90
2018-12-23T22:22:52.771Z,9.90
2018-12-23T22:25:21.334Z,9.90
2018-12-23T22:27:49.895Z,9.90
2018-12-23T22:30:18.461Z,9.90
2018-12-23T22:32:47.111Z,9.90
2018-12-23T22:35:15.740Z,9.90
2018-12-23T22:37:44.319Z,10.00
2018-12-23T22:40:13.024Z,10.00
2018-12-23T22:42:41.605Z,10.10
2018-12-23T22:45:10.169Z,10.10
2018-12-23T22:47:38.804Z,10.30
2018-12-23T22:50:07.369Z,10.30
2018-12-23T22:52:35.936Z,10.40
2018-12-23T22:55:04.501Z,10.30
2018-12-23T22:57:33.037Z,10.20
2018-12-23T23:00:01.619Z,10.00
2018-12-23T23:02:30.182Z,9.80
2018-12-23T23:04:58.757Z,9.80
2018-12-23T23:07:27.490Z,9.70
2018-12-23T23:09:56.141Z,9.70
2018-12-23T23:12:24.798Z,9.70
2018-12-23T23:14:53.446Z,9.60
2018-12-23T23:17:22.020Z,9.60
2018-12-23T23:19:50.597Z,9.50
2018-12-23T23:22:19.458Z,9.50
2018-12-23T23:24:48.046Z,9.50
2018-12-23T23:27:16.614Z,9.40
2018-12-23T23:29:45.189Z,9.50
2018-12-23T23:32:13.775Z,9.40
2018-12-23T23:34:42.429Z,9.40
2018-12-23T23:37:10.994Z,9.30
2018-12-23T23:39:39.560Z,9.30
2018-12-23T23:42:08.210Z,9.30
2018-12-23T23:44:36.856Z,9.30
2018-12-23T23:47:05.503Z,9.30
2018-12-23T23:49:34.071Z,9.20
2018-12-23T23:52:02.643Z,9.20
2018-12-23T23:54:31.216Z,9.20
2018-12-23T23:57:00.236Z,9.10
2018-12-23T23:59:28.871Z,9.10
